sensor_id;sensor_type;location;lat;lon;timestamp;pressure;altitude;pressure_sealevel;temperature;humidity
55486;BME280;71262;-25.924;28.194;2024-03-17T00:00:47;85241.86;;;18.43;48.25
55486;BME280;71262;-25.924;28.194;2024-03-17T00:03:12;85243.35;;;18.35;48.42
55486;BME280;71262;-25.924;28.194;2024-03-17T00:05:39;85242.39;;;18.28;48.53
55486;BME280;71262;-25.924;28.194;2024-03-17T00:08:04;85238.62;;;18.43;48.31
55486;BME280;71262;-25.924;28.194;2024-03-17T00:10:29;85236.94;;;18.47;48.23
55486;BME280;71262;-25.924;28.194;2024-03-17T00:12:55;85241.29;;;18.38;48.34
55486;BME280;71262;-25.924;28.194;2024-03-17T00:15:20;85245.28;;;18.39;48.33
55486;BME280;71262;-25.924;28.194;2024-03-17T00:17:45;85247.41;;;18.12;48.34
55486;BME280;71262;-25.924;28.194;2024-03-17T00:20:13;85270.06;;;18.17;48.22
55486;BME280;71262;-25.924;28.194;2024-03-17T00:22:36;85269.58;;;18.42;48.12
55486;BME280;71262;-25.924;28.194;2024-03-17T00:25:04;85266.92;;;18.12;48.47
55486;BME280;71262;-25.924;28.194;2024-03-17T00:27:28;85263.47;;;18.21;48.29
55486;BME280;71262;-25.924;28.194;2024-03-17T00:29:53;85262.11;;;18.28;48.16
55486;BME280;71262;-25.924;28.194;2024-03-17T00:32:18;85259.25;;;18.32;48.14
55486;BME280;71262;-25.924;28.194;2024-03-17T00:34:44;85258.49;;;18.32;48.11
55486;BME280;71262;-25.924;28.194;2024-03-17T00:37:10;85260.91;;;18.34;48.11
55486;BME280;71262;-25.924;28.194;2024-03-17T00:39:35;85256.55;;;18.24;47.76
55486;BME280;71262;-25.924;28.194;2024-03-17T00:42:00;85255.10;;;18.27;48.15
55486;BME280;71262;-25.924;28.194;2024-03-17T00:44:26;85257.30;;;18.28;48.15
55486;BME280;71262;-25.924;28.194;2024-03-17T00:46:51;85256.18;;;18.07;48.11
55486;BME280;71262;-25.924;28.194;2024-03-17T00:49:17;85255.66;;;18.17;48.36
55486;BME280;71262;-25.924;28.194;2024-03-17T00:51:43;85257.88;;;18.33;48.12
55486;BME280;71262;-25.924;28.194;2024-03-17T00:54:09;85254.63;;;18.34;48.07
55486;BME280;71262;-25.924;28.194;2024-03-17T00:56:34;85253.41;;;18.24;48.17
55486;BME280;71262;-25.924;28.194;2024-03-17T00:58:59;85253.32;;;18.17;48.28
55486;BME280;71262;-25.924;28.194;2024-03-17T01:01:24;85251.88;;;18.21;48.23
55486;BME280;71262;-25.924;28.194;2024-03-17T01:03:50;85249.75;;;18.34;47.99
55486;BME280;71262;-25.924;28.194;2024-03-17T01:06:15;85245.43;;;18.29;48.04
55486;BME280;71262;-25.924;28.194;2024-03-17T01:08:41;85246.85;;;18.31;47.99
55486;BME280;71262;-25.924;28.194;2024-03-17T01:11:05;85245.11;;;18.28;47.99
55486;BME280;71262;-25.924;28.194;2024-03-17T01:13:31;85244.67;;;18.32;47.89
55486;BME280;71262;-25.924;28.194;2024-03-17T01:15:57;85242.55;;;18.27;47.95
55486;BME280;71262;-25.924;28.194;2024-03-17T01:18:22;85241.57;;;18.41;47.68
55486;BME280;71262;-25.924;28.194;2024-03-17T01:20:47;85243.55;;;18.39;47.66
55486;BME280;71262;-25.924;28.194;2024-03-17T01:23:12;85240.32;;;18.13;47.62
55486;BME280;71262;-25.924;28.194;2024-03-17T01:25:38;85239.81;;;18.31;47.73
55486;BME280;71262;-25.924;28.194;2024-03-17T01:28:04;85238.29;;;18.27;47.79
55486;BME280;71262;-25.924;28.194;2024-03-17T01:30:30;85238.21;;;18.25;47.83
55486;BME280;71262;-25.924;28.194;2024-03-17T01:32:55;85238.61;;;18.28;47.75
55486;BME280;71262;-25.924;28.194;2024-03-17T01:35:20;85235.62;;;18.01;47.71
55486;BME280;71262;-25.924;28.194;2024-03-17T01:37:46;85235.16;;;18.00;47.70
55486;BME280;71262;-25.924;28.194;2024-03-17T01:40:11;85235.55;;;18.19;47.78
55486;BME280;71262;-25.924;28.194;2024-03-17T01:42:37;85236.93;;;18.15;47.85
55486;BME280;71262;-25.924;28.194;2024-03-17T01:45:01;85241.38;;;18.33;48.95
55486;BME280;71262;-25.924;28.194;2024-03-17T01:47:27;85238.03;;;18.23;50.01
55486;BME280;71262;-25.924;28.194;2024-03-17T01:49:52;85237.89;;;18.42;49.21
55486;BME280;71262;-25.924;28.194;2024-03-17T01:52:17;85237.27;;;18.55;45.91
55486;BME280;71262;-25.924;28.194;2024-03-17T01:54:43;85241.47;;;18.50;47.47
55486;BME280;71262;-25.924;28.194;2024-03-17T01:57:08;85242.03;;;18.22;50.08
55486;BME280;71262;-25.924;28.194;2024-03-17T01:59:34;85243.89;;;18.57;49.74
55486;BME280;71262;-25.924;28.194;2024-03-17T02:01:59;85244.95;;;18.65;47.37
55486;BME280;71262;-25.924;28.194;2024-03-17T02:04:24;85247.37;;;18.58;45.61
55486;BME280;71262;-25.924;28.194;2024-03-17T02:06:49;85250.92;;;18.32;46.75
55486;BME280;71262;-25.924;28.194;2024-03-17T02:09:15;85248.24;;;18.62;46.95
55486;BME280;71262;-25.924;28.194;2024-03-17T02:11:40;85253.89;;;18.31;49.55
55486;BME280;71262;-25.924;28.194;2024-03-17T02:14:06;85257.69;;;18.51;49.95
55486;BME280;71262;-25.924;28.194;2024-03-17T02:16:31;85262.71;;;18.78;48.96
55486;BME280;71262;-25.924;28.194;2024-03-17T02:18:57;85274.62;;;18.53;45.38
55486;BME280;71262;-25.924;28.194;2024-03-17T02:21:23;85276.36;;;18.58;46.28
55486;BME280;71262;-25.924;28.194;2024-03-17T02:23:48;85281.46;;;18.25;49.18
55486;BME280;71262;-25.924;28.194;2024-03-17T02:26:14;85288.14;;;18.44;49.81
55486;BME280;71262;-25.924;28.194;2024-03-17T02:28:40;85287.87;;;18.57;48.66
55486;BME280;71262;-25.924;28.194;2024-03-17T02:31:04;85295.42;;;18.61;45.49
55486;BME280;71262;-25.924;28.194;2024-03-17T02:33:29;85301.99;;;18.66;45.92
55486;BME280;71262;-25.924;28.194;2024-03-17T02:35:54;85301.47;;;18.57;46.43
55486;BME280;71262;-25.924;28.194;2024-03-17T02:38:20;85299.63;;;18.26;46.75
55486;BME280;71262;-25.924;28.194;2024-03-17T02:40:45;85307.01;;;18.21;46.95
55486;BME280;71262;-25.924;28.194;2024-03-17T02:43:11;85317.48;;;18.52;46.86
55486;BME280;71262;-25.924;28.194;2024-03-17T02:45:36;85329.75;;;18.33;49.60
55486;BME280;71262;-25.924;28.194;2024-03-17T02:48:04;85336.51;;;18.51;49.62
55486;BME280;71262;-25.924;28.194;2024-03-17T02:50:27;85337.47;;;18.64;48.83
55486;BME280;71262;-25.924;28.194;2024-03-17T02:52:52;85337.89;;;18.93;48.13
55486;BME280;71262;-25.924;28.194;2024-03-17T02:55:18;85347.43;;;18.98;47.59
55486;BME280;71262;-25.924;28.194;2024-03-17T02:57:43;85355.49;;;19.26;47.04
55486;BME280;71262;-25.924;28.194;2024-03-17T03:00:10;85360.16;;;19.45;46.57
55486;BME280;71262;-25.924;28.194;2024-03-17T03:02:34;85360.79;;;19.43;46.43
55486;BME280;71262;-25.924;28.194;2024-03-17T03:04:59;85354.71;;;19.53;43.41
55486;BME280;71262;-25.924;28.194;2024-03-17T03:07:25;85354.95;;;19.00;47.79
55486;BME280;71262;-25.924;28.194;2024-03-17T03:09:52;85355.76;;;19.11;47.31
55486;BME280;71262;-25.924;28.194;2024-03-17T03:12:15;85358.47;;;19.32;46.80
55486;BME280;71262;-25.924;28.194;2024-03-17T03:14:41;85360.91;;;19.07;46.27
55486;BME280;71262;-25.924;28.194;2024-03-17T03:17:06;85364.27;;;19.19;45.97
55486;BME280;71262;-25.924;28.194;2024-03-17T03:19:31;85368.34;;;19.84;44.40
55486;BME280;71262;-25.924;28.194;2024-03-17T03:21:57;85374.10;;;19.23;44.79
55486;BME280;71262;-25.924;28.194;2024-03-17T03:24:22;85376.81;;;18.92;47.53
55486;BME280;71262;-25.924;28.194;2024-03-17T03:26:48;85380.84;;;19.07;46.97
55486;BME280;71262;-25.924;28.194;2024-03-17T03:29:13;85381.54;;;19.49;46.19
55486;BME280;71262;-25.924;28.194;2024-03-17T03:31:38;85390.17;;;19.12;45.85
55486;BME280;71262;-25.924;28.194;2024-03-17T03:34:04;85399.39;;;19.26;44.50
55486;BME280;71262;-25.924;28.194;2024-03-17T03:36:30;85407.24;;;19.60;45.39
55486;BME280;71262;-25.924;28.194;2024-03-17T03:38:54;85414.78;;;19.18;46.54
55486;BME280;71262;-25.924;28.194;2024-03-17T03:41:22;85424.87;;;19.34;46.09
55486;BME280;71262;-25.924;28.194;2024-03-17T03:43:45;85429.56;;;19.15;45.57
55486;BME280;71262;-25.924;28.194;2024-03-17T03:46:10;85426.40;;;19.38;45.10
55486;BME280;71262;-25.924;28.194;2024-03-17T03:48:36;85428.90;;;19.41;43.49
55486;BME280;71262;-25.924;28.194;2024-03-17T03:51:04;85429.97;;;19.42;45.43
55486;BME280;71262;-25.924;28.194;2024-03-17T03:53:27;85429.29;;;18.93;46.79
55486;BME280;71262;-25.924;28.194;2024-03-17T03:55:52;85431.33;;;19.19;46.20
55486;BME280;71262;-25.924;28.194;2024-03-17T03:58:17;85438.47;;;19.26;45.67
55486;BME280;71262;-25.924;28.194;2024-03-17T04:00:42;85438.95;;;19.35;45.03
55486;BME280;71262;-25.924;28.194;2024-03-17T04:03:08;85438.97;;;19.49;44.63
55486;BME280;71262;-25.924;28.194;2024-03-17T04:05:33;85439.63;;;19.52;42.29
55486;BME280;71262;-25.924;28.194;2024-03-17T04:07:59;85440.09;;;19.26;46.19
55486;BME280;71262;-25.924;28.194;2024-03-17T04:10:24;85444.37;;;18.91;46.11
55486;BME280;71262;-25.924;28.194;2024-03-17T04:12:50;85446.10;;;19.35;45.71
55486;BME280;71262;-25.924;28.194;2024-03-17T04:15:15;85447.64;;;19.33;44.92
55486;BME280;71262;-25.924;28.194;2024-03-17T04:17:41;85447.95;;;19.50;43.26
55486;BME280;71262;-25.924;28.194;2024-03-17T04:20:07;85448.51;;;19.46;43.76
55486;BME280;71262;-25.924;28.194;2024-03-17T04:22:31;85453.31;;;19.49;46.06
55486;BME280;71262;-25.924;28.194;2024-03-17T04:24:57;85458.77;;;19.43;45.72
55486;BME280;71262;-25.924;28.194;2024-03-17T04:27:22;85462.48;;;19.17;45.37
55486;BME280;71262;-25.924;28.194;2024-03-17T04:29:48;85461.96;;;19.18;43.22
55486;BME280;71262;-25.924;28.194;2024-03-17T04:32:12;85463.80;;;19.19;45.32
55486;BME280;71262;-25.924;28.194;2024-03-17T04:34:37;85473.22;;;19.16;46.69
55486;BME280;71262;-25.924;28.194;2024-03-17T04:37:02;85478.68;;;19.38;46.02
55486;BME280;71262;-25.924;28.194;2024-03-17T04:39:27;85480.00;;;19.03;45.71
55486;BME280;71262;-25.924;28.194;2024-03-17T04:41:52;85483.48;;;19.42;43.00
55486;BME280;71262;-25.924;28.194;2024-03-17T04:44:18;85489.10;;;19.33;46.76
55486;BME280;71262;-25.924;28.194;2024-03-17T04:46:43;85491.70;;;19.14;46.49
55486;BME280;71262;-25.924;28.194;2024-03-17T04:49:08;85495.72;;;19.23;45.93
55486;BME280;71262;-25.924;28.194;2024-03-17T04:51:33;85494.73;;;19.50;43.09
55486;BME280;71262;-25.924;28.194;2024-03-17T04:53:58;85496.64;;;19.21;46.70
55486;BME280;71262;-25.924;28.194;2024-03-17T04:56:23;85497.11;;;19.56;47.42
55486;BME280;71262;-25.924;28.194;2024-03-17T04:58:49;85499.17;;;19.70;46.70
55486;BME280;71262;-25.924;28.194;2024-03-17T05:01:14;85496.45;;;19.28;43.75
55486;BME280;71262;-25.924;28.194;2024-03-17T05:03:39;85496.53;;;19.25;44.88
55486;BME280;71262;-25.924;28.194;2024-03-17T05:06:05;85503.19;;;19.13;48.64
55486;BME280;71262;-25.924;28.194;2024-03-17T05:08:29;85507.59;;;19.49;48.74
55486;BME280;71262;-25.924;28.194;2024-03-17T05:10:57;85506.98;;;19.34;46.80
55486;BME280;71262;-25.924;28.194;2024-03-17T05:13:19;85507.23;;;19.57;44.42
55486;BME280;71262;-25.924;28.194;2024-03-17T05:15:45;85509.85;;;19.26;46.34
55486;BME280;71262;-25.924;28.194;2024-03-17T05:18:10;85512.31;;;19.46;46.91
55486;BME280;71262;-25.924;28.194;2024-03-17T05:20:36;85513.37;;;18.97;47.31
55486;BME280;71262;-25.924;28.194;2024-03-17T05:23:01;85512.49;;;19.27;47.56
55486;BME280;71262;-25.924;28.194;2024-03-17T05:25:26;85514.61;;;19.51;47.83
55486;BME280;71262;-25.924;28.194;2024-03-17T05:27:52;85519.83;;;19.51;48.08
55486;BME280;71262;-25.924;28.194;2024-03-17T05:30:17;85521.28;;;19.41;48.17
55486;BME280;71262;-25.924;28.194;2024-03-17T05:32:42;85528.81;;;19.17;47.55
55486;BME280;71262;-25.924;28.194;2024-03-17T05:35:08;85535.72;;;19.23;47.89
55486;BME280;71262;-25.924;28.194;2024-03-17T05:37:33;85541.18;;;19.60;48.38
55486;BME280;71262;-25.924;28.194;2024-03-17T05:39:59;85530.39;;;19.70;47.22
55486;BME280;71262;-25.924;28.194;2024-03-17T05:42:24;85525.47;;;19.00;48.13
55486;BME280;71262;-25.924;28.194;2024-03-17T05:44:49;85528.59;;;19.57;48.37
55486;BME280;71262;-25.924;28.194;2024-03-17T05:47:15;85533.47;;;19.57;48.54
55486;BME280;71262;-25.924;28.194;2024-03-17T05:49:40;85536.05;;;19.37;48.80
55486;BME280;71262;-25.924;28.194;2024-03-17T05:52:06;85535.61;;;19.53;49.12
55486;BME280;71262;-25.924;28.194;2024-03-17T05:54:32;85536.29;;;19.49;49.03
55486;BME280;71262;-25.924;28.194;2024-03-17T05:56:56;85533.77;;;19.72;49.24
55486;BME280;71262;-25.924;28.194;2024-03-17T05:59:22;85535.18;;;19.69;49.48
55486;BME280;71262;-25.924;28.194;2024-03-17T06:01:48;85536.05;;;19.65;49.03
55486;BME280;71262;-25.924;28.194;2024-03-17T06:04:13;85542.54;;;19.47;49.32
55486;BME280;71262;-25.924;28.194;2024-03-17T06:06:38;85543.65;;;19.61;49.15
55486;BME280;71262;-25.924;28.194;2024-03-17T06:09:05;85546.82;;;19.45;49.43
55486;BME280;71262;-25.924;28.194;2024-03-17T06:11:29;85549.98;;;19.75;48.74
55486;BME280;71262;-25.924;28.194;2024-03-17T06:13:54;85554.02;;;19.27;48.64
55486;BME280;71262;-25.924;28.194;2024-03-17T06:16:20;85557.47;;;19.57;47.72
55486;BME280;71262;-25.924;28.194;2024-03-17T06:18:45;85560.67;;;19.48;48.52
55486;BME280;71262;-25.924;28.194;2024-03-17T06:21:11;85559.42;;;19.57;47.09
55486;BME280;71262;-25.924;28.194;2024-03-17T06:23:37;85556.52;;;19.71;47.68
55486;BME280;71262;-25.924;28.194;2024-03-17T06:26:02;85556.21;;;19.47;46.65
55486;BME280;71262;-25.924;28.194;2024-03-17T06:28:28;85556.98;;;19.39;45.78
55486;BME280;71262;-25.924;28.194;2024-03-17T06:30:57;85557.27;;;19.45;45.65
55486;BME280;71262;-25.924;28.194;2024-03-17T06:33:19;85555.51;;;20.04;45.74
55486;BME280;71262;-25.924;28.194;2024-03-17T06:35:44;85555.86;;;19.74;44.56
55486;BME280;71262;-25.924;28.194;2024-03-17T06:38:09;85558.50;;;19.63;45.80
55486;BME280;71262;-25.924;28.194;2024-03-17T06:40:34;85557.33;;;19.80;44.35
55486;BME280;71262;-25.924;28.194;2024-03-17T06:42:59;85557.91;;;20.06;45.18
55486;BME280;71262;-25.924;28.194;2024-03-17T06:45:25;85561.43;;;20.15;44.76
55486;BME280;71262;-25.924;28.194;2024-03-17T06:47:50;85557.82;;;20.03;44.70
55486;BME280;71262;-25.924;28.194;2024-03-17T06:50:15;85558.40;;;20.24;44.09
55486;BME280;71262;-25.924;28.194;2024-03-17T06:52:40;85565.85;;;20.28;44.07
55486;BME280;71262;-25.924;28.194;2024-03-17T06:55:06;85570.60;;;20.22;43.75
55486;BME280;71262;-25.924;28.194;2024-03-17T06:57:32;85569.59;;;20.29;42.00
55486;BME280;71262;-25.924;28.194;2024-03-17T06:59:57;85568.02;;;20.83;41.61
55486;BME280;71262;-25.924;28.194;2024-03-17T07:02:22;85565.91;;;20.49;41.76
55486;BME280;71262;-25.924;28.194;2024-03-17T07:04:48;85563.01;;;20.47;41.59
55486;BME280;71262;-25.924;28.194;2024-03-17T07:07:14;85564.06;;;20.83;41.51
55486;BME280;71262;-25.924;28.194;2024-03-17T07:09:39;85569.80;;;20.87;41.34
55486;BME280;71262;-25.924;28.194;2024-03-17T07:12:05;85569.33;;;21.23;41.14
55486;BME280;71262;-25.924;28.194;2024-03-17T07:14:30;85568.47;;;21.31;40.89
55486;BME280;71262;-25.924;28.194;2024-03-17T07:16:55;85566.22;;;21.16;39.65
55486;BME280;71262;-25.924;28.194;2024-03-17T07:19:20;85565.05;;;21.33;38.26
55486;BME280;71262;-25.924;28.194;2024-03-17T07:21:45;85564.17;;;21.53;37.40
55486;BME280;71262;-25.924;28.194;2024-03-17T07:24:10;85564.09;;;21.22;36.64
55486;BME280;71262;-25.924;28.194;2024-03-17T07:26:35;85557.94;;;21.40;35.62
55486;BME280;71262;-25.924;28.194;2024-03-17T07:29:00;85558.24;;;21.86;35.01
55486;BME280;71262;-25.924;28.194;2024-03-17T07:31:25;85559.40;;;21.90;34.35
55486;BME280;71262;-25.924;28.194;2024-03-17T07:33:50;85559.01;;;21.93;33.57
55486;BME280;71262;-25.924;28.194;2024-03-17T07:36:15;85561.45;;;22.10;33.32
55486;BME280;71262;-25.924;28.194;2024-03-17T07:38:40;85562.76;;;22.07;33.41
55486;BME280;71262;-25.924;28.194;2024-03-17T07:41:07;85560.94;;;21.70;32.82
55486;BME280;71262;-25.924;28.194;2024-03-17T07:43:33;85558.48;;;21.86;32.25
55486;BME280;71262;-25.924;28.194;2024-03-17T07:46:00;85555.45;;;22.34;32.18
55486;BME280;71262;-25.924;28.194;2024-03-17T07:48:21;85550.22;;;21.99;32.75
55486;BME280;71262;-25.924;28.194;2024-03-17T07:50:53;85545.90;;;22.69;32.95
55486;BME280;71262;-25.924;28.194;2024-03-17T07:53:12;85547.09;;;22.21;33.13
55486;BME280;71262;-25.924;28.194;2024-03-17T07:55:37;85549.42;;;22.42;33.32
55486;BME280;71262;-25.924;28.194;2024-03-17T07:58:02;85543.95;;;22.68;33.40
55486;BME280;71262;-25.924;28.194;2024-03-17T08:00:27;85542.55;;;22.10;33.56
55486;BME280;71262;-25.924;28.194;2024-03-17T08:02:52;85541.88;;;22.44;33.61
55486;BME280;71262;-25.924;28.194;2024-03-17T08:05:17;85537.12;;;22.50;33.64
55486;BME280;71262;-25.924;28.194;2024-03-17T08:07:43;85536.73;;;22.26;33.77
55486;BME280;71262;-25.924;28.194;2024-03-17T08:10:09;85534.99;;;22.31;33.80
55486;BME280;71262;-25.924;28.194;2024-03-17T08:12:34;85531.19;;;22.83;33.76
55486;BME280;71262;-25.924;28.194;2024-03-17T08:14:59;85530.34;;;22.84;33.82
55486;BME280;71262;-25.924;28.194;2024-03-17T08:17:25;85528.74;;;22.32;33.97
55486;BME280;71262;-25.924;28.194;2024-03-17T08:19:50;85526.76;;;22.27;34.08
55486;BME280;71262;-25.924;28.194;2024-03-17T08:22:15;85525.44;;;22.73;33.60
55486;BME280;71262;-25.924;28.194;2024-03-17T08:24:40;85522.72;;;22.65;33.80
55486;BME280;71262;-25.924;28.194;2024-03-17T08:27:05;85516.58;;;22.97;34.07
55486;BME280;71262;-25.924;28.194;2024-03-17T08:29:30;85520.84;;;22.87;34.16
55486;BME280;71262;-25.924;28.194;2024-03-17T08:31:55;85517.60;;;22.66;34.12
55486;BME280;71262;-25.924;28.194;2024-03-17T08:34:20;85514.00;;;22.56;33.97
55486;BME280;71262;-25.924;28.194;2024-03-17T08:36:45;85512.34;;;23.02;33.94
55486;BME280;71262;-25.924;28.194;2024-03-17T08:39:10;85507.22;;;22.53;33.82
55486;BME280;71262;-25.924;28.194;2024-03-17T08:41:35;85506.00;;;22.75;34.26
55486;BME280;71262;-25.924;28.194;2024-03-17T08:44:00;85501.80;;;22.80;34.62
55486;BME280;71262;-25.924;28.194;2024-03-17T08:46:26;85498.85;;;22.61;34.44
55486;BME280;71262;-25.924;28.194;2024-03-17T08:48:50;85495.94;;;22.85;34.54
55486;BME280;71262;-25.924;28.194;2024-03-17T08:51:16;85491.74;;;22.82;34.55
55486;BME280;71262;-25.924;28.194;2024-03-17T08:53:41;85492.05;;;22.76;34.83
55486;BME280;71262;-25.924;28.194;2024-03-17T08:56:07;85488.49;;;22.66;34.85
55486;BME280;71262;-25.924;28.194;2024-03-17T08:58:32;85488.74;;;22.61;34.49
55486;BME280;71262;-25.924;28.194;2024-03-17T09:00:57;85488.45;;;22.41;33.69
55486;BME280;71262;-25.924;28.194;2024-03-17T09:03:22;85486.49;;;22.45;33.16
55486;BME280;71262;-25.924;28.194;2024-03-17T09:05:48;85489.56;;;22.87;32.31
55486;BME280;71262;-25.924;28.194;2024-03-17T09:08:16;85484.99;;;22.95;32.71
55486;BME280;71262;-25.924;28.194;2024-03-17T09:10:40;85483.60;;;22.81;33.37
55486;BME280;71262;-25.924;28.194;2024-03-17T09:13:03;85478.39;;;22.69;33.32
55486;BME280;71262;-25.924;28.194;2024-03-17T09:15:27;85473.83;;;22.92;33.47
55486;BME280;71262;-25.924;28.194;2024-03-17T09:17:52;85470.64;;;23.03;33.72
55486;BME280;71262;-25.924;28.194;2024-03-17T09:20:17;85469.50;;;23.04;33.58
55486;BME280;71262;-25.924;28.194;2024-03-17T09:22:42;85463.43;;;23.05;33.92
55486;BME280;71262;-25.924;28.194;2024-03-17T09:25:08;85464.47;;;22.74;34.83
55486;BME280;71262;-25.924;28.194;2024-03-17T09:27:32;85461.54;;;22.89;36.37
55486;BME280;71262;-25.924;28.194;2024-03-17T09:29:57;85457.55;;;22.72;37.50
55486;BME280;71262;-25.924;28.194;2024-03-17T09:32:22;85452.46;;;22.96;38.39
55486;BME280;71262;-25.924;28.194;2024-03-17T09:34:48;85449.52;;;22.40;39.29
55486;BME280;71262;-25.924;28.194;2024-03-17T09:37:13;85447.43;;;22.71;39.82
55486;BME280;71262;-25.924;28.194;2024-03-17T09:39:38;85445.72;;;23.00;40.32
55486;BME280;71262;-25.924;28.194;2024-03-17T09:42:08;85444.35;;;22.75;40.78
55486;BME280;71262;-25.924;28.194;2024-03-17T09:44:30;85439.64;;;22.96;41.12
55486;BME280;71262;-25.924;28.194;2024-03-17T09:46:54;85432.97;;;22.96;41.43
55486;BME280;71262;-25.924;28.194;2024-03-17T09:49:19;85431.89;;;22.94;41.66
55486;BME280;71262;-25.924;28.194;2024-03-17T09:51:44;85428.54;;;22.92;41.84
55486;BME280;71262;-25.924;28.194;2024-03-17T09:54:17;85426.56;;;22.78;42.00
55486;BME280;71262;-25.924;28.194;2024-03-17T09:56:34;85420.92;;;23.16;42.14
55486;BME280;71262;-25.924;28.194;2024-03-17T09:58:59;85415.70;;;22.68;42.32
55486;BME280;71262;-25.924;28.194;2024-03-17T10:01:24;85413.78;;;22.88;42.64
55486;BME280;71262;-25.924;28.194;2024-03-17T10:03:50;85408.22;;;22.91;42.73
55486;BME280;71262;-25.924;28.194;2024-03-17T10:06:15;85405.84;;;23.00;43.14
55486;BME280;71262;-25.924;28.194;2024-03-17T10:08:45;85406.02;;;22.84;43.14
55486;BME280;71262;-25.924;28.194;2024-03-17T10:11:05;85404.44;;;22.90;42.75
55486;BME280;71262;-25.924;28.194;2024-03-17T10:13:30;85397.85;;;23.06;42.41
55486;BME280;71262;-25.924;28.194;2024-03-17T10:15:55;85395.73;;;22.89;42.75
55486;BME280;71262;-25.924;28.194;2024-03-17T10:18:22;85392.30;;;22.93;42.24
55486;BME280;71262;-25.924;28.194;2024-03-17T10:20:46;85387.74;;;23.00;41.04
55486;BME280;71262;-25.924;28.194;2024-03-17T10:23:11;85383.78;;;23.06;41.46
55486;BME280;71262;-25.924;28.194;2024-03-17T10:25:39;85381.53;;;22.97;41.95
55486;BME280;71262;-25.924;28.194;2024-03-17T10:28:01;85380.31;;;22.86;41.36
55486;BME280;71262;-25.924;28.194;2024-03-17T10:30:26;85383.01;;;22.90;41.75
55486;BME280;71262;-25.924;28.194;2024-03-17T10:32:55;85377.70;;;22.86;42.16
55486;BME280;71262;-25.924;28.194;2024-03-17T10:40:10;85360.64;;;23.05;42.24
55486;BME280;71262;-25.924;28.194;2024-03-17T10:42:32;85356.19;;;22.93;42.64
55486;BME280;71262;-25.924;28.194;2024-03-17T10:44:58;85350.15;;;22.80;42.94
55486;BME280;71262;-25.924;28.194;2024-03-17T10:47:24;85349.47;;;22.88;43.01
55486;BME280;71262;-25.924;28.194;2024-03-17T10:49:51;85350.28;;;22.93;42.53
55486;BME280;71262;-25.924;28.194;2024-03-17T10:52:17;85348.31;;;22.98;42.69
55486;BME280;71262;-25.924;28.194;2024-03-17T10:54:39;85340.76;;;22.91;42.74
55486;BME280;71262;-25.924;28.194;2024-03-17T10:57:13;85339.97;;;22.83;42.03
55486;BME280;71262;-25.924;28.194;2024-03-17T10:59:38;85332.02;;;22.97;42.35
55486;BME280;71262;-25.924;28.194;2024-03-17T11:01:54;85325.62;;;22.95;42.77
55486;BME280;71262;-25.924;28.194;2024-03-17T11:04:19;85327.55;;;23.01;42.97
55486;BME280;71262;-25.924;28.194;2024-03-17T11:06:45;85327.16;;;22.91;43.24
55486;BME280;71262;-25.924;28.194;2024-03-17T11:09:14;85316.20;;;22.98;43.21
55486;BME280;71262;-25.924;28.194;2024-03-17T11:11:38;85320.62;;;23.06;43.18
55486;BME280;71262;-25.924;28.194;2024-03-17T11:16:27;85309.72;;;22.91;43.45
55486;BME280;71262;-25.924;28.194;2024-03-17T11:18:51;85305.13;;;23.06;42.20
55486;BME280;71262;-25.924;28.194;2024-03-17T11:21:21;85301.08;;;23.17;42.85
55486;BME280;71262;-25.924;28.194;2024-03-17T11:23:42;85300.65;;;22.93;43.05
55486;BME280;71262;-25.924;28.194;2024-03-17T11:26:08;85294.78;;;22.88;43.17
55486;BME280;71262;-25.924;28.194;2024-03-17T11:28:44;85296.76;;;23.12;43.30
55486;BME280;71262;-25.924;28.194;2024-03-17T11:30:57;85296.19;;;23.11;43.31
55486;BME280;71262;-25.924;28.194;2024-03-17T11:35:47;85283.54;;;23.11;43.53
55486;BME280;71262;-25.924;28.194;2024-03-17T11:40:38;85271.56;;;23.15;43.40
55486;BME280;71262;-25.924;28.194;2024-03-17T11:43:04;85269.06;;;22.69;43.68
55486;BME280;71262;-25.924;28.194;2024-03-17T11:45:28;85263.32;;;22.76;43.67
55486;BME280;71262;-25.924;28.194;2024-03-17T11:47:54;85260.50;;;23.18;43.69
55486;BME280;71262;-25.924;28.194;2024-03-17T11:50:20;85254.96;;;23.19;43.78
55486;BME280;71262;-25.924;28.194;2024-03-17T11:52:45;85253.52;;;22.93;43.75
55486;BME280;71262;-25.924;28.194;2024-03-17T11:55:17;85249.31;;;23.00;43.66
55486;BME280;71262;-25.924;28.194;2024-03-17T11:57:36;85243.33;;;23.05;43.61
55486;BME280;71262;-25.924;28.194;2024-03-17T12:00:01;85239.71;;;22.81;43.59
55486;BME280;71262;-25.924;28.194;2024-03-17T12:02:27;85237.35;;;22.96;43.70
55486;BME280;71262;-25.924;28.194;2024-03-17T12:04:52;85237.66;;;22.99;43.27
55486;BME280;71262;-25.924;28.194;2024-03-17T12:07:17;85234.53;;;22.94;42.84
55486;BME280;71262;-25.924;28.194;2024-03-17T12:09:42;85235.11;;;23.09;43.39
55486;BME280;71262;-25.924;28.194;2024-03-17T12:12:10;85230.97;;;22.94;43.40
55486;BME280;71262;-25.924;28.194;2024-03-17T12:14:33;85233.39;;;23.02;43.75
55486;BME280;71262;-25.924;28.194;2024-03-17T12:16:59;85231.71;;;22.97;43.93
55486;BME280;71262;-25.924;28.194;2024-03-17T12:19:23;85229.15;;;23.17;44.18
55486;BME280;71262;-25.924;28.194;2024-03-17T12:21:49;85224.79;;;22.96;44.58
55486;BME280;71262;-25.924;28.194;2024-03-17T12:24:17;85222.33;;;22.67;44.67
55486;BME280;71262;-25.924;28.194;2024-03-17T12:26:39;85218.44;;;22.85;44.97
55486;BME280;71262;-25.924;28.194;2024-03-17T12:29:04;85214.16;;;22.76;45.09
55486;BME280;71262;-25.924;28.194;2024-03-17T12:31:30;85215.27;;;22.78;45.31
55486;BME280;71262;-25.924;28.194;2024-03-17T12:33:54;85217.59;;;22.83;45.31
55486;BME280;71262;-25.924;28.194;2024-03-17T12:36:19;85212.71;;;22.93;43.24
55486;BME280;71262;-25.924;28.194;2024-03-17T12:38:45;85206.53;;;22.68;41.88
55486;BME280;71262;-25.924;28.194;2024-03-17T12:41:16;85208.76;;;22.61;43.12